createdAt,value
2023-02-12T00:01:10.427Z,19.85
2023-02-12T00:03:38.923Z,20.45
2023-02-12T00:06:07.243Z,19.25
2023-02-12T00:08:34.507Z,20.80
2023-02-12T00:11:08.831Z,19.40
2023-02-12T00:13:36.164Z,21.85
2023-02-12T00:16:11.630Z,18.48
2023-02-12T00:18:38.702Z,23.70
2023-02-12T00:21:08.872Z,21.37
2023-02-12T00:23:37.328Z,21.70
2023-02-12T00:26:09.088Z,23.12
2023-02-12T00:28:38.258Z,19.27
2023-02-12T00:31:10.656Z,24.30
2023-02-12T00:33:38.482Z,23.10
2023-02-12T00:36:07.658Z,17.67
2023-02-12T00:38:34.825Z,20.05
2023-02-12T00:41:03.803Z,21.52
2023-02-12T00:43:30.953Z,19.85
2023-02-12T00:45:58.622Z,22.80
2023-02-12T00:48:27.041Z,21.83
2023-02-12T00:50:54.159Z,25.40
2023-02-12T00:53:21.306Z,20.25
2023-02-12T00:55:49.055Z,22.92
2023-02-12T00:58:18.899Z,20.98
2023-02-12T01:00:46.724Z,24.02
2023-02-12T01:03:14.765Z,19.00
2023-02-12T01:05:42.599Z,19.08
2023-02-12T01:08:13.523Z,19.98
2023-02-12T01:10:41.610Z,23.87
2023-02-12T01:13:14.548Z,22.98
2023-02-12T01:15:42.699Z,30.00
2023-02-12T01:18:09.874Z,25.65
2023-02-12T01:20:37.092Z,22.37
2023-02-12T01:23:06.967Z,23.77
2023-02-12T01:25:34.385Z,22.50
2023-02-12T01:28:01.490Z,23.92
2023-02-12T01:30:28.928Z,25.23
2023-02-12T01:32:56.226Z,21.85
2023-02-12T01:35:23.338Z,27.58
2023-02-12T01:37:50.752Z,21.05
2023-02-12T01:40:18.832Z,26.55
2023-02-12T01:42:46.090Z,26.85
2023-02-12T01:45:13.454Z,23.67
2023-02-12T01:47:45.341Z,26.08
2023-02-12T01:50:17.412Z,19.42
2023-02-12T01:52:54.234Z,19.90
2023-02-12T01:55:22.165Z,20.17
2023-02-12T01:57:49.743Z,25.70
2023-02-12T02:00:21.245Z,22.42
2023-02-12T02:02:55.158Z,20.90
2023-02-12T02:05:44.012Z,27.27
2023-02-12T02:08:12.461Z,21.08
2023-02-12T02:10:39.784Z,24.50
2023-02-12T02:13:26.109Z,27.37
2023-02-12T02:15:58.721Z,22.20
2023-02-12T02:18:37.977Z,22.73
2023-02-12T02:21:11.248Z,23.87
2023-02-12T02:24:03.326Z,19.65
2023-02-12T02:26:39.975Z,20.02
2023-02-12T02:29:31.164Z,22.33
2023-02-12T02:32:21.400Z,23.27
2023-02-12T02:35:10.877Z,20.35
2023-02-12T02:37:41.266Z,22.42
2023-02-12T02:40:26.855Z,21.37
2023-02-12T02:43:00.842Z,21.17
2023-02-12T02:45:36.393Z,29.75
2023-02-12T02:48:10.418Z,25.02
2023-02-12T02:50:42.912Z,24.50
2023-02-12T02:53:30.171Z,26.70
2023-02-12T02:56:01.756Z,25.42
2023-02-12T02:58:36.397Z,24.27
2023-02-12T03:03:48.659Z,25.92
2023-02-12T03:06:25.525Z,23.70
2023-02-12T03:09:05.502Z,22.70
2023-02-12T03:11:34.479Z,24.98
2023-02-12T03:14:36.944Z,23.40
2023-02-12T03:17:12.914Z,26.92
2023-02-12T03:19:58.949Z,25.00
2023-02-12T03:22:33.928Z,22.67
2023-02-12T03:25:09.760Z,19.62
2023-02-12T03:27:42.467Z,24.60
2023-02-12T03:30:11.160Z,27.52
2023-02-12T03:33:04.788Z,20.62
2023-02-12T03:35:39.360Z,18.05
2023-02-12T03:41:12.438Z,22.42
2023-02-12T03:43:51.117Z,19.60
2023-02-12T03:46:55.568Z,22.08
2023-02-12T03:49:42.896Z,23.27
2023-02-12T03:52:10.452Z,23.55
2023-02-12T03:54:37.694Z,25.42
2023-02-12T03:57:30.717Z,23.05
2023-02-12T04:00:01.134Z,20.08
2023-02-12T04:02:28.328Z,32.42
2023-02-12T04:04:55.710Z,27.65
2023-02-12T04:07:23.195Z,22.25
2023-02-12T04:09:50.349Z,25.55
2023-02-12T04:12:54.024Z,29.05
2023-02-12T04:15:41.312Z,26.42
2023-02-12T04:18:41.021Z,26.87
2023-02-12T04:21:20.293Z,25.92
2023-02-12T04:23:59.045Z,23.95
2023-02-12T04:26:41.357Z,27.10
2023-02-12T04:29:29.141Z,30.62
2023-02-12T04:32:04.270Z,27.75
2023-02-12T04:34:45.574Z,27.92
2023-02-12T04:37:24.566Z,31.35
2023-02-12T04:39:53.514Z,25.12
2023-02-12T04:42:20.833Z,23.12
2023-02-12T04:44:48.064Z,28.15
2023-02-12T04:47:16.418Z,25.15
2023-02-12T04:49:43.641Z,24.10
2023-02-12T04:52:10.754Z,28.52
2023-02-12T04:54:38.340Z,26.45
2023-02-12T04:57:05.398Z,30.25
2023-02-12T04:59:32.539Z,27.62
2023-02-12T05:01:59.859Z,23.65
2023-02-12T05:04:26.913Z,28.23
2023-02-12T05:06:53.932Z,22.35
2023-02-12T05:09:22.540Z,23.00
2023-02-12T05:11:49.589Z,23.92
2023-02-12T05:14:16.696Z,29.83
2023-02-12T05:16:44.159Z,25.05
2023-02-12T05:19:11.414Z,27.00
2023-02-12T05:21:38.793Z,26.92
2023-02-12T05:24:06.726Z,25.20
2023-02-12T05:26:34.650Z,27.05
2023-02-12T05:29:03.392Z,26.10
2023-02-12T05:31:31.093Z,26.75
2023-02-12T05:33:58.309Z,27.05
2023-02-12T05:36:25.735Z,24.90
2023-02-12T05:38:53.872Z,23.52
2023-02-12T05:41:23.352Z,28.35
2023-02-12T05:43:51.037Z,28.83
2023-02-12T05:46:19.853Z,24.67
2023-02-12T05:48:48.043Z,25.37
2023-02-12T05:51:20.006Z,23.50
2023-02-12T05:53:48.035Z,26.10
2023-02-12T05:56:17.679Z,23.70
2023-02-12T05:58:48.019Z,27.17
2023-02-12T06:01:18.357Z,25.80
2023-02-12T06:03:46.304Z,30.95
2023-02-12T06:06:13.446Z,25.45
2023-02-12T06:08:41.008Z,25.08
2023-02-12T06:11:12.667Z,26.85
2023-02-12T06:13:39.924Z,27.15
2023-02-12T06:16:07.758Z,29.05
2023-02-12T06:18:36.248Z,26.90
2023-02-12T06:21:04.382Z,25.90
2023-02-12T06:23:31.492Z,26.58
2023-02-12T06:25:59.281Z,29.50
2023-02-12T06:28:26.394Z,27.40
2023-02-12T06:30:53.642Z,21.35
2023-02-12T06:33:21.196Z,22.52
2023-02-12T06:35:48.494Z,23.75
2023-02-12T06:38:15.746Z,23.35
2023-02-12T06:40:43.233Z,26.27
2023-02-12T06:43:10.513Z,24.77
2023-02-12T06:45:37.665Z,27.85
2023-02-12T06:48:05.334Z,31.83
2023-02-12T06:50:33.065Z,33.10
2023-02-12T06:53:00.162Z,29.25
2023-02-12T06:55:27.575Z,27.65
2023-02-12T06:57:54.666Z,22.80
2023-02-12T07:00:22.236Z,24.83
2023-02-12T07:02:56.394Z,22.52
2023-02-12T07:05:24.099Z,26.23
2023-02-12T07:07:51.845Z,22.80
2023-02-12T07:10:19.157Z,22.45
2023-02-12T07:12:46.638Z,19.62
2023-02-12T07:15:14.753Z,20.25
2023-02-12T07:17:42.038Z,20.70
2023-02-12T07:20:09.631Z,18.77
2023-02-12T07:22:37.321Z,20.27
2023-02-12T07:25:04.813Z,25.40
2023-02-12T07:27:32.141Z,18.92
2023-02-12T07:29:59.628Z,18.73
2023-02-12T07:32:26.758Z,23.00
2023-02-12T07:34:53.876Z,20.95
2023-02-12T07:37:22.800Z,21.37
2023-02-12T07:39:50.243Z,21.02
2023-02-12T07:42:18.017Z,16.65
2023-02-12T07:44:45.676Z,21.60
2023-02-12T07:47:12.822Z,20.98
2023-02-12T07:49:39.993Z,20.98
2023-02-12T07:52:07.704Z,19.70
2023-02-12T07:54:35.054Z,20.85
2023-02-12T07:57:02.216Z,18.10
2023-02-12T07:59:29.723Z,18.98
2023-02-12T08:01:57.144Z,17.75
2023-02-12T08:04:25.399Z,18.10
2023-02-12T08:06:54.537Z,22.48
2023-02-12T08:09:28.006Z,18.30
2023-02-12T08:11:55.790Z,20.23
2023-02-12T08:14:23.201Z,17.12
2023-02-12T08:16:51.318Z,18.15
2023-02-12T08:19:22.733Z,15.45
2023-02-12T08:21:53.378Z,17.27
2023-02-12T08:24:22.146Z,12.80
2023-02-12T08:26:50.000Z,17.05
2023-02-12T08:29:20.179Z,17.42
2023-02-12T08:31:50.008Z,13.98
2023-02-12T08:34:21.350Z,18.17
2023-02-12T08:36:50.259Z,18.67
2023-02-12T08:39:18.693Z,16.48
2023-02-12T08:41:46.942Z,15.98
2023-02-12T08:44:15.614Z,16.45
2023-02-12T08:46:50.983Z,16.90
2023-02-12T08:49:21.560Z,14.60
2023-02-12T08:51:51.484Z,15.20
2023-02-12T08:54:21.803Z,15.30
2023-02-12T08:56:48.845Z,15.88
2023-02-12T08:59:17.290Z,19.10
2023-02-12T09:01:44.988Z,13.20
2023-02-12T09:04:18.577Z,11.15
2023-02-12T09:06:47.267Z,14.80
2023-02-12T09:09:14.942Z,15.38
2023-02-12T09:11:42.282Z,15.55
2023-02-12T09:14:14.124Z,13.90
2023-02-12T09:16:41.731Z,15.63
2023-02-12T09:19:11.555Z,14.60
2023-02-12T09:21:38.886Z,12.45
2023-02-12T09:24:06.247Z,17.52
2023-02-12T09:26:33.303Z,12.80
2023-02-12T09:29:02.472Z,14.60
2023-02-12T09:31:31.629Z,12.07
2023-02-12T09:34:02.137Z,11.70
2023-02-12T09:36:30.241Z,12.35
2023-02-12T09:38:59.347Z,17.52
2023-02-12T09:41:38.179Z,13.88
2023-02-12T09:44:46.746Z,14.85
2023-02-12T09:47:23.946Z,11.10
2023-02-12T09:50:13.651Z,10.10
2023-02-12T09:52:41.665Z,12.52
2023-02-12T09:55:15.474Z,11.45
2023-02-12T09:57:43.326Z,12.20
2023-02-12T10:00:28.062Z,15.55
2023-02-12T10:05:26.961Z,10.00
2023-02-12T10:08:12.607Z,17.37
2023-02-12T10:11:12.138Z,10.77
2023-02-12T10:13:48.331Z,12.98
2023-02-12T10:16:18.390Z,12.37
2023-02-12T10:19:19.846Z,9.65
2023-02-12T10:22:03.675Z,8.85
2023-02-12T10:24:56.218Z,12.55
2023-02-12T10:27:49.219Z,10.55
2023-02-12T10:30:37.804Z,9.90
2023-02-12T10:33:12.546Z,12.13
2023-02-12T10:35:48.335Z,16.85
2023-02-12T10:38:27.738Z,11.90
2023-02-12T10:40:57.934Z,12.50
2023-02-12T10:43:25.414Z,8.40
2023-02-12T10:45:52.575Z,16.17
2023-02-12T10:48:36.998Z,11.68
2023-02-12T10:51:04.532Z,13.02
2023-02-12T10:53:43.640Z,10.75
2023-02-12T10:56:20.163Z,10.68
2023-02-12T10:58:50.061Z,9.82
2023-02-12T11:01:22.875Z,9.30
2023-02-12T11:03:50.092Z,10.30
2023-02-12T11:06:20.489Z,8.77
2023-02-12T11:08:48.087Z,7.57
2023-02-12T11:11:27.901Z,7.80
2023-02-12T11:14:19.820Z,7.93
2023-02-12T11:16:55.847Z,8.65
2023-02-12T11:19:27.012Z,9.30
2023-02-12T11:22:07.146Z,7.18
2023-02-12T11:24:36.967Z,7.20
2023-02-12T11:27:16.067Z,11.50
2023-02-12T11:29:45.982Z,9.38
2023-02-12T11:32:19.393Z,8.25
2023-02-12T11:35:05.520Z,8.18
2023-02-12T11:37:37.243Z,11.00
2023-02-12T11:40:06.094Z,6.37
2023-02-12T11:42:37.822Z,8.32
2023-02-12T11:45:05.437Z,6.82
2023-02-12T11:47:36.227Z,5.93
2023-02-12T11:50:21.710Z,7.97
2023-02-12T11:52:56.319Z,7.50
2023-02-12T11:55:27.230Z,6.87
2023-02-12T11:58:21.812Z,7.12
2023-02-12T12:01:03.215Z,7.97
2023-02-12T12:03:52.193Z,7.00
2023-02-12T12:06:24.881Z,8.02
2023-02-12T12:09:07.320Z,6.35
2023-02-12T12:11:41.469Z,6.22
2023-02-12T12:14:16.218Z,8.05
2023-02-12T12:17:11.209Z,6.25
2023-02-12T12:19:54.466Z,8.95
2023-02-12T12:22:37.357Z,5.05
2023-02-12T12:25:30.845Z,8.00
2023-02-12T12:28:04.127Z,10.90
2023-02-12T12:30:40.750Z,8.45
2023-02-12T12:33:32.664Z,7.95
2023-02-12T12:36:06.248Z,6.95
2023-02-12T12:38:33.330Z,6.75
2023-02-12T12:41:18.439Z,7.50
2023-02-12T12:43:57.224Z,6.45
2023-02-12T12:46:30.643Z,7.30
2023-02-12T12:49:14.770Z,7.30
2023-02-12T12:51:50.921Z,8.65
2023-02-12T12:54:55.689Z,5.60
2023-02-12T12:57:50.559Z,13.43
2023-02-12T13:00:48.150Z,11.68
2023-02-12T13:04:01.145Z,8.15
2023-02-12T13:06:48.451Z,6.30
2023-02-12T13:09:39.216Z,10.88
2023-02-12T13:12:26.629Z,7.87
2023-02-12T13:15:06.253Z,6.10
2023-02-12T13:17:46.057Z,7.22
2023-02-12T13:20:22.596Z,8.63
2023-02-12T13:23:07.977Z,10.50
2023-02-12T13:25:47.873Z,8.05
2023-02-12T13:28:42.402Z,8.57
2023-02-12T13:34:04.752Z,10.60
2023-02-12T13:36:36.051Z,7.12
2023-02-12T13:39:15.244Z,12.18
2023-02-12T13:41:48.617Z,16.35
2023-02-12T13:45:00.923Z,19.62
2023-02-12T13:47:40.226Z,24.60
2023-02-12T13:50:47.076Z,29.73
2023-02-12T13:53:32.886Z,28.35
2023-02-12T13:56:23.498Z,20.20
2023-02-12T13:58:53.282Z,20.95
2023-02-12T14:01:35.625Z,24.63
2023-02-12T14:04:29.151Z,30.08
2023-02-12T14:07:02.183Z,33.78
2023-02-12T14:09:35.435Z,26.33
2023-02-12T14:12:06.647Z,32.17
2023-02-12T14:14:57.200Z,35.13
2023-02-12T14:17:30.847Z,23.17
2023-02-12T14:20:52.634Z,25.42
2023-02-12T14:23:31.643Z,23.10
2023-02-12T14:26:07.634Z,23.00
2023-02-12T14:28:57.943Z,28.10
2023-02-12T14:31:28.117Z,22.35
2023-02-12T14:34:11.363Z,20.75
2023-02-12T14:36:43.985Z,28.40
2023-02-12T14:39:19.903Z,21.20
2023-02-12T14:41:55.076Z,20.55
2023-02-12T14:44:26.792Z,22.62
2023-02-12T14:46:57.201Z,22.02
2023-02-12T14:49:35.264Z,21.87
2023-02-12T14:52:07.645Z,27.95
2023-02-12T14:54:41.433Z,26.87
2023-02-12T14:57:20.311Z,27.58
2023-02-12T14:59:48.810Z,25.37
2023-02-12T15:02:26.051Z,24.67
2023-02-12T15:04:56.547Z,25.48
2023-02-12T15:07:39.654Z,24.77
2023-02-12T15:10:23.126Z,28.75
2023-02-12T15:13:09.050Z,28.43
2023-02-12T15:15:53.114Z,31.90
2023-02-12T15:18:35.967Z,28.55
2023-02-12T15:21:12.082Z,34.42
2023-02-12T15:23:45.231Z,29.45
2023-02-12T15:26:22.843Z,36.33
2023-02-12T15:28:53.369Z,34.33
2023-02-12T15:31:26.081Z,32.58
2023-02-12T15:33:56.424Z,33.95
2023-02-12T15:36:26.263Z,35.40
2023-02-12T15:38:57.551Z,40.35
2023-02-12T15:41:38.515Z,45.70
2023-02-12T15:44:31.077Z,41.20
2023-02-12T15:47:00.973Z,38.63
2023-02-12T15:49:36.821Z,33.67
2023-02-12T15:52:40.172Z,39.60
2023-02-12T15:55:15.923Z,38.08
2023-02-12T15:57:50.282Z,46.17
2023-02-12T16:00:39.719Z,50.72
2023-02-12T16:03:20.684Z,44.33
2023-02-12T16:05:49.703Z,47.25
2023-02-12T16:08:20.356Z,52.95
2023-02-12T16:10:51.969Z,55.88
2023-02-12T16:13:32.453Z,46.03
2023-02-12T16:16:22.249Z,45.12
2023-02-12T16:19:07.994Z,47.58
2023-02-12T16:21:38.868Z,54.38
2023-02-12T16:24:22.457Z,61.37
2023-02-12T16:26:51.151Z,58.22
2023-02-12T16:29:19.276Z,55.75
2023-02-12T16:31:58.932Z,55.75
2023-02-12T16:34:36.611Z,74.82
2023-02-12T16:37:43.686Z,68.30
2023-02-12T16:40:14.063Z,61.67
2023-02-12T16:42:46.966Z,72.47
2023-02-12T16:45:26.618Z,62.22
2023-02-12T16:47:55.732Z,60.70
2023-02-12T16:50:26.044Z,60.92
2023-02-12T16:53:01.473Z,59.25
2023-02-12T16:55:29.078Z,65.47
2023-02-12T16:57:56.203Z,62.40
2023-02-12T17:00:24.061Z,63.90
2023-02-12T17:02:55.236Z,58.30
2023-02-12T17:05:23.359Z,72.60
2023-02-12T17:07:50.553Z,77.03
2023-02-12T17:10:18.290Z,85.22
2023-02-12T17:12:47.805Z,93.15
2023-02-12T17:15:23.185Z,100.68
2023-02-12T17:17:50.684Z,85.10
2023-02-12T17:20:17.884Z,86.35
2023-02-12T17:22:50.284Z,99.95
2023-02-12T17:25:18.254Z,93.50
2023-02-12T17:27:46.013Z,101.80
2023-02-12T17:30:18.393Z,128.60
2023-02-12T17:32:45.779Z,106.78
2023-02-12T17:35:14.020Z,125.55
2023-02-12T17:37:41.147Z,105.07
2023-02-12T17:40:11.248Z,90.80
2023-02-12T17:42:38.543Z,88.32
2023-02-12T17:45:06.438Z,83.18
2023-02-12T17:47:39.718Z,85.82
2023-02-12T17:50:13.981Z,79.18
2023-02-12T17:52:41.543Z,67.18
2023-02-12T17:55:11.492Z,61.63
2023-02-12T17:57:39.236Z,47.62
2023-02-12T18:00:10.041Z,46.05
2023-02-12T18:02:38.421Z,33.97
2023-02-12T18:05:06.174Z,37.72
2023-02-12T18:07:34.145Z,40.20
2023-02-12T18:10:01.847Z,32.20
2023-02-12T18:12:31.375Z,28.20
2023-02-12T18:15:00.229Z,31.58
2023-02-12T18:17:27.794Z,25.17
2023-02-12T18:19:55.696Z,35.55
2023-02-12T18:22:23.806Z,37.95
2023-02-12T18:24:51.145Z,29.87
2023-02-12T18:27:18.681Z,34.95
2023-02-12T18:29:45.996Z,27.15
2023-02-12T18:32:15.968Z,22.17
2023-02-12T18:34:44.140Z,14.87
2023-02-12T18:37:12.983Z,20.15
2023-02-12T18:39:40.190Z,18.60
2023-02-12T18:42:08.021Z,9.50
2023-02-12T18:44:35.231Z,13.23
2023-02-12T18:47:02.374Z,12.05
2023-02-12T18:49:29.845Z,14.98
2023-02-12T18:51:57.843Z,15.48
2023-02-12T18:54:24.895Z,14.98
2023-02-12T18:56:53.233Z,13.82
2023-02-12T18:59:21.792Z,15.88
2023-02-12T19:01:50.791Z,14.77
2023-02-12T19:04:20.545Z,15.13
2023-02-12T19:06:52.956Z,18.37
2023-02-12T19:09:24.281Z,17.20
2023-02-12T19:11:54.188Z,23.52
2023-02-12T19:14:22.899Z,19.10
2023-02-12T19:16:50.471Z,26.12
2023-02-12T19:19:20.167Z,24.70
2023-02-12T19:21:47.610Z,27.08
2023-02-12T19:24:16.124Z,22.55
2023-02-12T19:26:47.066Z,20.58
2023-02-12T19:29:14.489Z,19.45
2023-02-12T19:31:44.825Z,21.10
2023-02-12T19:34:16.964Z,17.60
2023-02-12T19:36:45.414Z,18.35
2023-02-12T19:39:14.900Z,20.60
2023-02-12T19:41:42.837Z,19.00
2023-02-12T19:44:12.725Z,22.33
2023-02-12T19:46:40.597Z,19.83
2023-02-12T19:49:12.670Z,16.50
2023-02-12T19:51:41.679Z,23.10
2023-02-12T19:54:11.067Z,18.77
2023-02-12T19:56:39.090Z,20.37
2023-02-12T19:59:07.013Z,17.12
2023-02-12T20:01:34.522Z,17.60
2023-02-12T20:04:02.990Z,22.20
2023-02-12T20:06:33.885Z,16.08
2023-02-12T20:09:01.707Z,15.48
2023-02-12T20:11:30.917Z,20.55
2023-02-12T20:13:58.711Z,15.52
2023-02-12T20:16:31.273Z,15.18
2023-02-12T20:19:04.609Z,16.83
2023-02-12T20:21:32.212Z,17.52
2023-02-12T20:24:01.740Z,12.75
2023-02-12T20:26:30.329Z,14.60
2023-02-12T20:28:59.137Z,21.52
2023-02-12T20:31:29.101Z,20.35
2023-02-12T20:34:01.700Z,17.25
2023-02-12T20:36:34.040Z,17.77
2023-02-12T20:39:01.231Z,21.10
2023-02-12T20:41:29.075Z,15.70
2023-02-12T20:43:59.237Z,18.60
2023-02-12T20:46:26.686Z,21.27
2023-02-12T20:48:55.160Z,21.95
2023-02-12T20:51:24.608Z,23.00
2023-02-12T20:53:52.697Z,26.33
2023-02-12T20:56:23.234Z,26.80
2023-02-12T20:58:50.592Z,26.73
2023-02-12T21:01:28.900Z,18.37
2023-02-12T21:03:56.319Z,16.80
2023-02-12T21:06:24.531Z,21.48
2023-02-12T21:08:51.854Z,35.50
2023-02-12T21:11:22.277Z,26.58
2023-02-12T21:13:58.769Z,29.17
2023-02-12T21:16:32.942Z,28.65
2023-02-12T21:19:01.007Z,35.10
2023-02-12T21:21:34.450Z,32.65
2023-02-12T21:24:04.439Z,32.38
2023-02-12T21:26:32.591Z,40.17
2023-02-12T21:29:01.305Z,36.78
2023-02-12T21:31:38.189Z,36.38
2023-02-12T21:34:09.174Z,37.53
2023-02-12T21:36:39.744Z,41.97
2023-02-12T21:39:11.580Z,38.90
2023-02-12T21:41:40.860Z,46.42
2023-02-12T21:44:12.364Z,51.03
2023-02-12T21:46:40.481Z,43.35
2023-02-12T21:49:07.817Z,47.67
2023-02-12T21:51:40.458Z,51.97
2023-02-12T21:54:11.568Z,55.47
2023-02-12T21:56:41.168Z,52.03
2023-02-12T21:59:09.471Z,54.38
2023-02-12T22:01:39.629Z,54.75
2023-02-12T22:04:07.516Z,53.25
2023-02-12T22:06:40.523Z,49.42
2023-02-12T22:09:09.893Z,51.63
2023-02-12T22:11:38.149Z,50.38
2023-02-12T22:14:07.235Z,53.65
2023-02-12T22:16:36.470Z,49.53
2023-02-12T22:19:05.349Z,49.92
2023-02-12T22:21:38.444Z,48.63
2023-02-12T22:24:08.345Z,43.93
2023-02-12T22:26:35.946Z,49.20
2023-02-12T22:29:06.387Z,49.90
2023-02-12T22:31:37.219Z,49.03
2023-02-12T22:34:08.244Z,45.30
2023-02-12T22:36:37.173Z,53.08
2023-02-12T22:39:05.051Z,46.42
2023-02-12T22:41:32.826Z,49.28
2023-02-12T22:44:01.677Z,48.42
2023-02-12T22:46:28.790Z,48.40
2023-02-12T22:48:55.841Z,49.97
2023-02-12T22:51:31.681Z,42.85
2023-02-12T22:53:59.083Z,50.20
2023-02-12T22:56:27.267Z,49.65
2023-02-12T22:58:56.746Z,46.03
2023-02-12T23:01:24.603Z,46.67
2023-02-12T23:03:52.255Z,42.92
2023-02-12T23:06:23.133Z,42.03
2023-02-12T23:08:55.806Z,41.58
2023-02-12T23:11:24.582Z,42.80
2023-02-12T23:13:52.238Z,36.65
2023-02-12T23:16:19.407Z,39.50
2023-02-12T23:18:47.291Z,37.13
2023-02-12T23:21:14.859Z,30.77
2023-02-12T23:23:41.881Z,36.15
2023-02-12T23:26:09.260Z,30.85
2023-02-12T23:28:36.394Z,32.25
2023-02-12T23:31:03.713Z,31.75
2023-02-12T23:33:31.211Z,31.90
2023-02-12T23:35:58.298Z,32.22
2023-02-12T23:38:25.429Z,30.17
2023-02-12T23:40:52.861Z,29.05
2023-02-12T23:43:19.997Z,30.37
2023-02-12T23:45:47.287Z,34.70
2023-02-12T23:48:14.698Z,28.38
2023-02-12T23:50:41.848Z,30.10
2023-02-12T23:53:10.183Z,32.53
2023-02-12T23:55:38.825Z,31.92
2023-02-12T23:58:07.262Z,31.25
